sensor_id;sensor_type;location;lat;lon;timestamp;pressure;altitude;pressure_sealevel;temperature;humidity
40650;BME280;26342;42.826;23.992;2022-08-19T00:01:48;95068.78;;;19.26;89.67
40650;BME280;26342;42.826;23.992;2022-08-19T00:04:16;95068.31;;;19.24;89.54
40650;BME280;26342;42.826;23.992;2022-08-19T00:06:43;95062.75;;;19.20;89.57
40650;BME280;26342;42.826;23.992;2022-08-19T00:09:11;95066.41;;;19.16;90.00
40650;BME280;26342;42.826;23.992;2022-08-19T00:11:37;95067.66;;;19.10;90.35
40650;BME280;26342;42.826;23.992;2022-08-19T00:14:05;95064.97;;;19.10;90.68
40650;BME280;26342;42.826;23.992;2022-08-19T00:16:31;95061.94;;;19.11;91.22
40650;BME280;26342;42.826;23.992;2022-08-19T00:18:57;95054.63;;;19.03;91.47
40650;BME280;26342;42.826;23.992;2022-08-19T00:21:24;95068.94;;;19.04;91.44
40650;BME280;26342;42.826;23.992;2022-08-19T00:23:49;95067.19;;;18.99;91.47
40650;BME280;26342;42.826;23.992;2022-08-19T00:26:15;95058.91;;;18.95;92.28
40650;BME280;26342;42.826;23.992;2022-08-19T00:28:41;95067.84;;;18.96;92.92
40650;BME280;26342;42.826;23.992;2022-08-19T00:31:07;95076.25;;;18.94;93.55
40650;BME280;26342;42.826;23.992;2022-08-19T00:33:33;95071.16;;;18.93;93.89
40650;BME280;26342;42.826;23.992;2022-08-19T00:36:03;95068.44;;;18.93;94.02
40650;BME280;26342;42.826;23.992;2022-08-19T00:38:31;95073.72;;;18.89;94.41
40650;BME280;26342;42.826;23.992;2022-08-19T00:40:57;95072.75;;;18.85;94.71
40650;BME280;26342;42.826;23.992;2022-08-19T00:43:26;95063.19;;;18.79;95.18
40650;BME280;26342;42.826;23.992;2022-08-19T00:45:52;95062.72;;;18.77;95.51
40650;BME280;26342;42.826;23.992;2022-08-19T00:48:18;95062.56;;;18.74;95.80
40650;BME280;26342;42.826;23.992;2022-08-19T00:50:45;95065.06;;;18.70;96.58
40650;BME280;26342;42.826;23.992;2022-08-19T00:53:12;95063.81;;;18.67;97.33
40650;BME280;26342;42.826;23.992;2022-08-19T00:55:41;95063.81;;;18.67;96.94
40650;BME280;26342;42.826;23.992;2022-08-19T00:58:10;95065.72;;;18.67;97.18
40650;BME280;26342;42.826;23.992;2022-08-19T01:00:37;95072.19;;;18.57;97.41
40650;BME280;26342;42.826;23.992;2022-08-19T01:03:11;95067.06;;;18.56;97.38
40650;BME280;26342;42.826;23.992;2022-08-19T01:05:37;95068.19;;;18.55;97.30
40650;BME280;26342;42.826;23.992;2022-08-19T01:08:05;95067.41;;;18.54;97.82
40650;BME280;26342;42.826;23.992;2022-08-19T01:10:35;95062.44;;;18.48;97.74
40650;BME280;26342;42.826;23.992;2022-08-19T01:13:03;95065.34;;;18.51;97.97
40650;BME280;26342;42.826;23.992;2022-08-19T01:15:32;95064.84;;;18.49;98.30
40650;BME280;26342;42.826;23.992;2022-08-19T01:18:02;95069.28;;;18.45;98.29
40650;BME280;26342;42.826;23.992;2022-08-19T01:20:29;95065.47;;;18.46;98.50
40650;BME280;26342;42.826;23.992;2022-08-19T01:22:57;95071.19;;;18.45;98.64
40650;BME280;26342;42.826;23.992;2022-08-19T01:25:33;95067.34;;;18.37;98.46
40650;BME280;26342;42.826;23.992;2022-08-19T01:28:00;95074.66;;;18.36;98.89
40650;BME280;26342;42.826;23.992;2022-08-19T01:30:33;95077.22;;;18.33;99.20
40650;BME280;26342;42.826;23.992;2022-08-19T01:32:59;95077.81;;;18.30;99.65
40650;BME280;26342;42.826;23.992;2022-08-19T01:35:27;95076.66;;;18.22;99.79
40650;BME280;26342;42.826;23.992;2022-08-19T01:37:56;95081.16;;;18.27;100.00
40650;BME280;26342;42.826;23.992;2022-08-19T01:40:24;95075.09;;;18.21;100.00
40650;BME280;26342;42.826;23.992;2022-08-19T01:42:52;95072.84;;;18.23;100.00
40650;BME280;26342;42.826;23.992;2022-08-19T01:45:19;95076.34;;;18.24;100.00
40650;BME280;26342;42.826;23.992;2022-08-19T01:47:45;95069.69;;;18.21;100.00
40650;BME280;26342;42.826;23.992;2022-08-19T01:50:11;95071.59;;;18.21;100.00
40650;BME280;26342;42.826;23.992;2022-08-19T01:52:39;95065.03;;;18.13;100.00
40650;BME280;26342;42.826;23.992;2022-08-19T01:55:06;95076.47;;;18.10;100.00
40650;BME280;26342;42.826;23.992;2022-08-19T01:57:33;95071.88;;;18.10;100.00
40650;BME280;26342;42.826;23.992;2022-08-19T01:59:58;95077.28;;;18.10;100.00
40650;BME280;26342;42.826;23.992;2022-08-19T02:02:24;95077.41;;;18.05;100.00
40650;BME280;26342;42.826;23.992;2022-08-19T02:04:50;95075.81;;;18.04;100.00
40650;BME280;26342;42.826;23.992;2022-08-19T02:07:19;95078.97;;;18.06;100.00
40650;BME280;26342;42.826;23.992;2022-08-19T02:09:46;95074.69;;;18.05;100.00
40650;BME280;26342;42.826;23.992;2022-08-19T02:12:13;95078.50;;;18.04;100.00
40650;BME280;26342;42.826;23.992;2022-08-19T02:14:39;95066.72;;;18.00;100.00
40650;BME280;26342;42.826;23.992;2022-08-19T02:17:05;95071.66;;;17.98;100.00
40650;BME280;26342;42.826;23.992;2022-08-19T02:19:30;95075.28;;;17.94;100.00
40650;BME280;26342;42.826;23.992;2022-08-19T02:21:58;95076.09;;;17.94;100.00
40650;BME280;26342;42.826;23.992;2022-08-19T02:24:23;95081.94;;;17.88;100.00
40650;BME280;26342;42.826;23.992;2022-08-19T02:26:49;95076.84;;;17.86;100.00
40650;BME280;26342;42.826;23.992;2022-08-19T02:29:14;95080.94;;;17.83;100.00
40650;BME280;26342;42.826;23.992;2022-08-19T02:31:40;95083.78;;;17.78;100.00
40650;BME280;26342;42.826;23.992;2022-08-19T02:34:05;95072.00;;;17.74;100.00
40650;BME280;26342;42.826;23.992;2022-08-19T02:36:31;95083.28;;;17.76;100.00
40650;BME280;26342;42.826;23.992;2022-08-19T02:38:56;95085.31;;;17.71;100.00
40650;BME280;26342;42.826;23.992;2022-08-19T02:41:26;95088.28;;;17.69;100.00
40650;BME280;26342;42.826;23.992;2022-08-19T02:43:56;95080.81;;;17.66;100.00
40650;BME280;26342;42.826;23.992;2022-08-19T02:46:25;95090.00;;;17.65;100.00
40650;BME280;26342;42.826;23.992;2022-08-19T02:48:55;95091.13;;;17.64;100.00
40650;BME280;26342;42.826;23.992;2022-08-19T02:51:42;95086.31;;;17.61;100.00
40650;BME280;26342;42.826;23.992;2022-08-19T02:54:10;95088.53;;;17.59;100.00
40650;BME280;26342;42.826;23.992;2022-08-19T02:56:37;95095.34;;;17.56;100.00
40650;BME280;26342;42.826;23.992;2022-08-19T02:59:04;95094.06;;;17.54;100.00
40650;BME280;26342;42.826;23.992;2022-08-19T03:01:36;95091.97;;;17.51;100.00
40650;BME280;26342;42.826;23.992;2022-08-19T03:04:04;95101.84;;;17.55;100.00
40650;BME280;26342;42.826;23.992;2022-08-19T03:06:30;95092.97;;;17.55;100.00
40650;BME280;26342;42.826;23.992;2022-08-19T03:08:56;95102.97;;;17.54;100.00
40650;BME280;26342;42.826;23.992;2022-08-19T03:11:28;95104.97;;;17.49;100.00
40650;BME280;26342;42.826;23.992;2022-08-19T03:13:54;95106.19;;;17.43;100.00
40650;BME280;26342;42.826;23.992;2022-08-19T03:16:21;95108.91;;;17.43;100.00
40650;BME280;26342;42.826;23.992;2022-08-19T03:18:47;95101.13;;;17.41;100.00
40650;BME280;26342;42.826;23.992;2022-08-19T03:21:18;95103.50;;;17.43;100.00
40650;BME280;26342;42.826;23.992;2022-08-19T03:23:44;95103.13;;;17.36;100.00
40650;BME280;26342;42.826;23.992;2022-08-19T03:26:09;95107.72;;;17.35;100.00
40650;BME280;26342;42.826;23.992;2022-08-19T03:28:35;95113.53;;;17.28;100.00
40650;BME280;26342;42.826;23.992;2022-08-19T03:31:07;95115.66;;;17.32;100.00
40650;BME280;26342;42.826;23.992;2022-08-19T03:33:34;95108.94;;;17.29;100.00
40650;BME280;26342;42.826;23.992;2022-08-19T03:38:31;95123.53;;;17.28;100.00
40650;BME280;26342;42.826;23.992;2022-08-19T03:40:57;95122.16;;;17.30;100.00
40650;BME280;26342;42.826;23.992;2022-08-19T03:43:23;95114.97;;;17.26;100.00
40650;BME280;26342;42.826;23.992;2022-08-19T03:45:59;95131.81;;;17.32;100.00
40650;BME280;26342;42.826;23.992;2022-08-19T03:48:25;95125.25;;;17.24;100.00
40650;BME280;26342;42.826;23.992;2022-08-19T03:50:50;95118.56;;;17.21;100.00
40650;BME280;26342;42.826;23.992;2022-08-19T03:53:16;95121.75;;;17.23;100.00
40650;BME280;26342;42.826;23.992;2022-08-19T03:55:41;95123.47;;;17.19;100.00
40650;BME280;26342;42.826;23.992;2022-08-19T03:58:06;95119.66;;;17.20;100.00
40650;BME280;26342;42.826;23.992;2022-08-19T04:00:32;95119.88;;;17.24;100.00
40650;BME280;26342;42.826;23.992;2022-08-19T04:02:58;95125.13;;;17.29;100.00
40650;BME280;26342;42.826;23.992;2022-08-19T04:05:26;95128.63;;;17.29;100.00
40650;BME280;26342;42.826;23.992;2022-08-19T04:07:53;95131.81;;;17.32;100.00
40650;BME280;26342;42.826;23.992;2022-08-19T04:10:19;95128.50;;;17.35;100.00
40650;BME280;26342;42.826;23.992;2022-08-19T04:12:44;95133.00;;;17.39;100.00
40650;BME280;26342;42.826;23.992;2022-08-19T04:15:10;95132.38;;;17.42;100.00
40650;BME280;26342;42.826;23.992;2022-08-19T04:17:35;95127.97;;;17.46;100.00
40650;BME280;26342;42.826;23.992;2022-08-19T04:20:00;95134.66;;;17.49;100.00
40650;BME280;26342;42.826;23.992;2022-08-19T04:22:26;95132.03;;;17.57;100.00
40650;BME280;26342;42.826;23.992;2022-08-19T04:24:51;95130.78;;;17.64;100.00
40650;BME280;26342;42.826;23.992;2022-08-19T04:27:17;95132.16;;;17.75;100.00
40650;BME280;26342;42.826;23.992;2022-08-19T04:29:42;95132.97;;;17.75;100.00
40650;BME280;26342;42.826;23.992;2022-08-19T04:32:08;95132.22;;;17.83;100.00
40650;BME280;26342;42.826;23.992;2022-08-19T04:34:34;95131.78;;;17.90;100.00
40650;BME280;26342;42.826;23.992;2022-08-19T04:36:59;95133.75;;;17.98;100.00
40650;BME280;26342;42.826;23.992;2022-08-19T04:39:28;95134.56;;;18.07;100.00
40650;BME280;26342;42.826;23.992;2022-08-19T04:42:13;95133.53;;;18.17;100.00
40650;BME280;26342;42.826;23.992;2022-08-19T04:45:00;95117.34;;;18.17;100.00
40650;BME280;26342;42.826;23.992;2022-08-19T04:47:28;95120.22;;;18.29;100.00
40650;BME280;26342;42.826;23.992;2022-08-19T04:49:54;95126.16;;;18.40;100.00
40650;BME280;26342;42.826;23.992;2022-08-19T04:52:19;95124.13;;;18.46;100.00
40650;BME280;26342;42.826;23.992;2022-08-19T04:54:45;95110.16;;;18.52;100.00
40650;BME280;26342;42.826;23.992;2022-08-19T04:57:10;95114.53;;;18.71;100.00
40650;BME280;26342;42.826;23.992;2022-08-19T04:59:37;95117.88;;;18.76;100.00
40650;BME280;26342;42.826;23.992;2022-08-19T05:02:03;95120.44;;;18.81;100.00
40650;BME280;26342;42.826;23.992;2022-08-19T05:04:29;95114.09;;;18.94;100.00
40650;BME280;26342;42.826;23.992;2022-08-19T05:06:56;95108.22;;;19.10;100.00
40650;BME280;26342;42.826;23.992;2022-08-19T05:09:21;95116.69;;;19.17;100.00
40650;BME280;26342;42.826;23.992;2022-08-19T05:11:46;95110.47;;;19.34;98.65
40650;BME280;26342;42.826;23.992;2022-08-19T05:14:13;95113.50;;;19.41;99.80
40650;BME280;26342;42.826;23.992;2022-08-19T05:16:39;95117.50;;;19.43;99.32
40650;BME280;26342;42.826;23.992;2022-08-19T05:19:04;95116.84;;;19.55;99.59
40650;BME280;26342;42.826;23.992;2022-08-19T05:21:49;95120.53;;;19.68;98.72
40650;BME280;26342;42.826;23.992;2022-08-19T05:24:33;95123.69;;;19.78;98.23
40650;BME280;26342;42.826;23.992;2022-08-19T05:27:00;95121.91;;;20.00;98.45
40650;BME280;26342;42.826;23.992;2022-08-19T05:29:29;95132.38;;;20.19;97.03
40650;BME280;26342;42.826;23.992;2022-08-19T05:31:54;95121.97;;;20.38;95.87
40650;BME280;26342;42.826;23.992;2022-08-19T05:34:22;95129.72;;;20.57;94.85
40650;BME280;26342;42.826;23.992;2022-08-19T05:36:51;95126.13;;;20.74;94.37
40650;BME280;26342;42.826;23.992;2022-08-19T05:39:23;95124.44;;;20.90;93.03
40650;BME280;26342;42.826;23.992;2022-08-19T05:41:53;95120.03;;;21.06;92.96
40650;BME280;26342;42.826;23.992;2022-08-19T05:44:19;95121.38;;;21.21;91.25
40650;BME280;26342;42.826;23.992;2022-08-19T05:46:47;95127.72;;;21.34;90.39
40650;BME280;26342;42.826;23.992;2022-08-19T05:49:15;95128.03;;;21.53;89.19
40650;BME280;26342;42.826;23.992;2022-08-19T05:51:41;95126.09;;;21.74;89.32
40650;BME280;26342;42.826;23.992;2022-08-19T05:54:08;95128.97;;;21.90;88.52
40650;BME280;26342;42.826;23.992;2022-08-19T05:56:34;95125.38;;;21.98;85.80
40650;BME280;26342;42.826;23.992;2022-08-19T05:59:02;95133.19;;;22.21;86.20
40650;BME280;26342;42.826;23.992;2022-08-19T06:01:29;95127.09;;;22.36;86.75
40650;BME280;26342;42.826;23.992;2022-08-19T06:03:54;95137.41;;;22.55;85.07
40650;BME280;26342;42.826;23.992;2022-08-19T06:06:21;95130.38;;;22.66;82.96
40650;BME280;26342;42.826;23.992;2022-08-19T06:08:46;95121.81;;;22.76;82.92
40650;BME280;26342;42.826;23.992;2022-08-19T06:11:16;95131.78;;;22.97;81.29
40650;BME280;26342;42.826;23.992;2022-08-19T06:13:44;95122.84;;;23.08;80.97
40650;BME280;26342;42.826;23.992;2022-08-19T06:16:12;95123.22;;;23.35;80.43
40650;BME280;26342;42.826;23.992;2022-08-19T06:18:37;95128.31;;;23.49;79.41
40650;BME280;26342;42.826;23.992;2022-08-19T06:21:03;95121.69;;;23.62;77.96
40650;BME280;26342;42.826;23.992;2022-08-19T06:23:29;95119.72;;;23.75;76.28
40650;BME280;26342;42.826;23.992;2022-08-19T06:25:56;95128.66;;;23.87;75.57
40650;BME280;26342;42.826;23.992;2022-08-19T06:28:21;95122.09;;;24.04;77.57
40650;BME280;26342;42.826;23.992;2022-08-19T06:30:49;95125.41;;;24.26;75.98
40650;BME280;26342;42.826;23.992;2022-08-19T06:33:15;95120.06;;;24.45;74.86
40650;BME280;26342;42.826;23.992;2022-08-19T06:35:41;95125.19;;;24.62;74.29
40650;BME280;26342;42.826;23.992;2022-08-19T06:38:07;95125.34;;;24.85;73.55
40650;BME280;26342;42.826;23.992;2022-08-19T06:40:35;95126.84;;;25.14;74.65
40650;BME280;26342;42.826;23.992;2022-08-19T06:43:00;95128.19;;;25.40;73.40
40650;BME280;26342;42.826;23.992;2022-08-19T06:45:28;95128.34;;;25.66;72.03
40650;BME280;26342;42.826;23.992;2022-08-19T06:47:53;95126.88;;;25.88;70.43
40650;BME280;26342;42.826;23.992;2022-08-19T06:50:21;95130.59;;;26.19;66.08
40650;BME280;26342;42.826;23.992;2022-08-19T06:52:47;95132.44;;;26.34;65.21
40650;BME280;26342;42.826;23.992;2022-08-19T06:55:12;95136.00;;;26.57;64.96
40650;BME280;26342;42.826;23.992;2022-08-19T06:57:38;95126.69;;;26.62;65.45
40650;BME280;26342;42.826;23.992;2022-08-19T07:00:05;95127.06;;;26.83;65.34
40650;BME280;26342;42.826;23.992;2022-08-19T07:02:31;95128.06;;;26.98;60.58
40650;BME280;26342;42.826;23.992;2022-08-19T07:04:57;95131.22;;;27.23;60.80
40650;BME280;26342;42.826;23.992;2022-08-19T07:07:23;95128.00;;;27.44;62.65
40650;BME280;26342;42.826;23.992;2022-08-19T07:09:51;95122.66;;;27.54;57.40
40650;BME280;26342;42.826;23.992;2022-08-19T07:12:18;95122.19;;;27.75;58.66
40650;BME280;26342;42.826;23.992;2022-08-19T07:14:43;95124.00;;;27.98;57.30
40650;BME280;26342;42.826;23.992;2022-08-19T07:17:11;95120.38;;;28.24;54.59
40650;BME280;26342;42.826;23.992;2022-08-19T07:19:38;95121.81;;;28.44;53.52
40650;BME280;26342;42.826;23.992;2022-08-19T07:22:05;95118.84;;;28.63;53.01
40650;BME280;26342;42.826;23.992;2022-08-19T07:24:33;95114.72;;;28.87;51.89
40650;BME280;26342;42.826;23.992;2022-08-19T07:27:01;95115.25;;;29.04;52.20
40650;BME280;26342;42.826;23.992;2022-08-19T07:29:29;95113.47;;;29.26;49.28
40650;BME280;26342;42.826;23.992;2022-08-19T07:31:56;95114.81;;;29.50;47.62
40650;BME280;26342;42.826;23.992;2022-08-19T07:34:25;95117.63;;;29.67;44.01
40650;BME280;26342;42.826;23.992;2022-08-19T07:36:52;95107.50;;;29.79;44.94
40650;BME280;26342;42.826;23.992;2022-08-19T07:39:24;95111.84;;;29.87;42.96
40650;BME280;26342;42.826;23.992;2022-08-19T07:41:50;95105.59;;;30.00;40.34
40650;BME280;26342;42.826;23.992;2022-08-19T07:44:17;95104.50;;;30.12;42.59
40650;BME280;26342;42.826;23.992;2022-08-19T07:46:45;95112.00;;;30.40;42.33
40650;BME280;26342;42.826;23.992;2022-08-19T07:49:12;95105.75;;;30.50;39.59
40650;BME280;26342;42.826;23.992;2022-08-19T07:51:44;95113.28;;;30.75;40.76
40650;BME280;26342;42.826;23.992;2022-08-19T07:54:09;95116.81;;;30.93;40.67
40650;BME280;26342;42.826;23.992;2022-08-19T07:56:36;95118.00;;;31.06;40.28
40650;BME280;26342;42.826;23.992;2022-08-19T07:59:02;95112.50;;;31.06;39.44
40650;BME280;26342;42.826;23.992;2022-08-19T08:01:28;95114.03;;;31.18;39.98
40650;BME280;26342;42.826;23.992;2022-08-19T08:03:55;95112.47;;;31.35;37.02
40650;BME280;26342;42.826;23.992;2022-08-19T08:06:40;95110.47;;;31.43;38.24
40650;BME280;26342;42.826;23.992;2022-08-19T08:09:31;95111.25;;;31.57;38.59
40650;BME280;26342;42.826;23.992;2022-08-19T08:12:00;95111.22;;;31.68;38.78
40650;BME280;26342;42.826;23.992;2022-08-19T08:14:33;95115.16;;;31.71;34.93
40650;BME280;26342;42.826;23.992;2022-08-19T08:17:00;95115.94;;;31.71;37.74
40650;BME280;26342;42.826;23.992;2022-08-19T08:19:26;95109.19;;;31.93;36.79
40650;BME280;26342;42.826;23.992;2022-08-19T08:21:56;95102.00;;;32.07;34.71
40650;BME280;26342;42.826;23.992;2022-08-19T08:24:24;95092.09;;;32.23;35.64
40650;BME280;26342;42.826;23.992;2022-08-19T08:26:49;95094.72;;;32.48;35.97
40650;BME280;26342;42.826;23.992;2022-08-19T08:29:14;95097.81;;;32.54;33.78
40650;BME280;26342;42.826;23.992;2022-08-19T08:31:42;95101.31;;;32.65;34.91
40650;BME280;26342;42.826;23.992;2022-08-19T08:34:08;95099.63;;;32.78;34.57
40650;BME280;26342;42.826;23.992;2022-08-19T08:36:39;95099.03;;;33.05;34.57
40650;BME280;26342;42.826;23.992;2022-08-19T08:39:14;95099.78;;;33.13;35.24
40650;BME280;26342;42.826;23.992;2022-08-19T08:44:32;95098.13;;;33.19;32.68
40650;BME280;26342;42.826;23.992;2022-08-19T08:47:05;95096.22;;;33.12;33.83
40650;BME280;26342;42.826;23.992;2022-08-19T08:50:05;95087.88;;;33.19;32.02
40650;BME280;26342;42.826;23.992;2022-08-19T08:52:44;95090.00;;;33.46;33.57
40650;BME280;26342;42.826;23.992;2022-08-19T08:55:20;95083.03;;;33.68;32.96
40650;BME280;26342;42.826;23.992;2022-08-19T09:00:20;95081.59;;;33.87;29.48
40650;BME280;26342;42.826;23.992;2022-08-19T09:02:47;95081.00;;;34.06;30.74
40650;BME280;26342;42.826;23.992;2022-08-19T09:05:13;95073.56;;;34.00;28.66
40650;BME280;26342;42.826;23.992;2022-08-19T09:08:02;95076.94;;;34.14;30.29
40650;BME280;26342;42.826;23.992;2022-08-19T09:15:36;95068.44;;;34.29;30.28
40650;BME280;26342;42.826;23.992;2022-08-19T09:18:04;95066.84;;;34.28;30.12
40650;BME280;26342;42.826;23.992;2022-08-19T09:20:32;95067.69;;;34.55;29.87
40650;BME280;26342;42.826;23.992;2022-08-19T09:22:58;95068.78;;;34.61;28.38
40650;BME280;26342;42.826;23.992;2022-08-19T09:25:24;95070.63;;;34.68;27.34
40650;BME280;26342;42.826;23.992;2022-08-19T09:27:51;95065.88;;;34.95;28.87
40650;BME280;26342;42.826;23.992;2022-08-19T09:30:29;95068.75;;;35.12;27.87
40650;BME280;26342;42.826;23.992;2022-08-19T09:32:55;95072.38;;;35.32;28.09
40650;BME280;26342;42.826;23.992;2022-08-19T09:35:22;95056.63;;;35.49;28.10
40650;BME280;26342;42.826;23.992;2022-08-19T09:37:49;95059.00;;;35.47;28.11
40650;BME280;26342;42.826;23.992;2022-08-19T09:40:16;95059.81;;;35.47;28.29
40650;BME280;26342;42.826;23.992;2022-08-19T09:42:43;95054.31;;;35.44;28.04
40650;BME280;26342;42.826;23.992;2022-08-19T09:45:09;95051.31;;;35.35;27.93
40650;BME280;26342;42.826;23.992;2022-08-19T09:47:35;95053.63;;;35.40;28.12
40650;BME280;26342;42.826;23.992;2022-08-19T09:50:04;95025.06;;;35.39;26.65
40650;BME280;26342;42.826;23.992;2022-08-19T09:52:30;95049.16;;;35.66;28.39
40650;BME280;26342;42.826;23.992;2022-08-19T09:54:56;95047.78;;;35.94;28.65
40650;BME280;26342;42.826;23.992;2022-08-19T09:57:21;95042.56;;;36.16;26.66
40650;BME280;26342;42.826;23.992;2022-08-19T09:59:47;95048.81;;;36.40;25.62
40650;BME280;26342;42.826;23.992;2022-08-19T10:02:13;95042.53;;;35.99;24.69
40650;BME280;26342;42.826;23.992;2022-08-19T10:04:38;95035.91;;;35.73;25.10
40650;BME280;26342;42.826;23.992;2022-08-19T10:07:22;95033.84;;;35.58;25.47
40650;BME280;26342;42.826;23.992;2022-08-19T10:09:47;95030.72;;;35.56;25.44
40650;BME280;26342;42.826;23.992;2022-08-19T10:12:13;95033.63;;;35.48;25.06
40650;BME280;26342;42.826;23.992;2022-08-19T10:14:40;95036.78;;;35.27;25.18
40650;BME280;26342;42.826;23.992;2022-08-19T10:17:06;95030.25;;;35.37;26.82
40650;BME280;26342;42.826;23.992;2022-08-19T10:19:31;95029.50;;;35.57;24.89
40650;BME280;26342;42.826;23.992;2022-08-19T10:22:03;95032.00;;;35.71;24.57
40650;BME280;26342;42.826;23.992;2022-08-19T10:24:30;95025.16;;;35.75;24.66
40650;BME280;26342;42.826;23.992;2022-08-19T10:26:56;95029.78;;;35.82;26.96
40650;BME280;26342;42.826;23.992;2022-08-19T10:29:21;95015.97;;;35.78;24.67
40650;BME280;26342;42.826;23.992;2022-08-19T10:31:46;95015.25;;;35.94;27.67
40650;BME280;26342;42.826;23.992;2022-08-19T10:34:12;95014.94;;;36.08;25.13
40650;BME280;26342;42.826;23.992;2022-08-19T10:36:38;95016.25;;;36.04;24.19
40650;BME280;26342;42.826;23.992;2022-08-19T10:39:06;95016.84;;;35.95;25.02
40650;BME280;26342;42.826;23.992;2022-08-19T10:41:34;95016.75;;;35.99;24.67
40650;BME280;26342;42.826;23.992;2022-08-19T10:44:03;95006.94;;;35.94;24.22
40650;BME280;26342;42.826;23.992;2022-08-19T10:46:32;95017.97;;;35.58;24.66
40650;BME280;26342;42.826;23.992;2022-08-19T10:48:59;95014.22;;;35.48;24.67
40650;BME280;26342;42.826;23.992;2022-08-19T10:51:26;95011.94;;;35.63;25.02
40650;BME280;26342;42.826;23.992;2022-08-19T10:54:10;95012.25;;;35.85;25.99
40650;BME280;26342;42.826;23.992;2022-08-19T10:56:35;95005.94;;;36.04;24.88
40650;BME280;26342;42.826;23.992;2022-08-19T10:59:22;95015.13;;;36.18;25.05
40650;BME280;26342;42.826;23.992;2022-08-19T11:01:48;95008.63;;;36.24;24.90
40650;BME280;26342;42.826;23.992;2022-08-19T11:04:14;95004.00;;;36.01;24.04
40650;BME280;26342;42.826;23.992;2022-08-19T11:06:43;95004.31;;;35.87;24.23
40650;BME280;26342;42.826;23.992;2022-08-19T11:09:10;95007.91;;;35.84;24.70
40650;BME280;26342;42.826;23.992;2022-08-19T11:11:37;95003.91;;;35.89;25.56
40650;BME280;26342;42.826;23.992;2022-08-19T11:14:07;95003.97;;;35.65;24.74
40650;BME280;26342;42.826;23.992;2022-08-19T11:16:33;94995.19;;;35.47;25.79
40650;BME280;26342;42.826;23.992;2022-08-19T11:18:59;95001.69;;;35.60;25.44
40650;BME280;26342;42.826;23.992;2022-08-19T11:23:51;95003.72;;;35.76;25.48
40650;BME280;26342;42.826;23.992;2022-08-19T11:26:18;94997.06;;;35.73;25.19
40650;BME280;26342;42.826;23.992;2022-08-19T11:28:44;94991.66;;;35.66;25.53
40650;BME280;26342;42.826;23.992;2022-08-19T11:31:12;94996.84;;;35.64;25.66
40650;BME280;26342;42.826;23.992;2022-08-19T11:33:38;94974.38;;;35.59;25.59
40650;BME280;26342;42.826;23.992;2022-08-19T11:36:03;94984.88;;;35.67;26.67
40650;BME280;26342;42.826;23.992;2022-08-19T11:38:29;94978.69;;;35.79;26.61
40650;BME280;26342;42.826;23.992;2022-08-19T11:40:57;94981.59;;;35.92;25.40
40650;BME280;26342;42.826;23.992;2022-08-19T11:43:22;94968.22;;;35.87;26.27
40650;BME280;26342;42.826;23.992;2022-08-19T11:45:48;94970.84;;;35.94;26.55
40650;BME280;26342;42.826;23.992;2022-08-19T11:48:14;94971.75;;;35.88;25.03
40650;BME280;26342;42.826;23.992;2022-08-19T11:50:39;94968.91;;;35.55;25.71
40650;BME280;26342;42.826;23.992;2022-08-19T11:53:07;94972.56;;;35.29;25.62
40650;BME280;26342;42.826;23.992;2022-08-19T11:55:32;94978.59;;;35.04;26.12
40650;BME280;26342;42.826;23.992;2022-08-19T11:58:01;94972.47;;;34.92;26.43
40650;BME280;26342;42.826;23.992;2022-08-19T12:00:26;94970.28;;;35.04;26.12
40650;BME280;26342;42.826;23.992;2022-08-19T12:02:52;94969.91;;;35.02;27.07
40650;BME280;26342;42.826;23.992;2022-08-19T12:17:34;94954.97;;;35.15;26.35
40650;BME280;26342;42.826;23.992;2022-08-19T12:20:02;94944.41;;;35.10;26.26
40650;BME280;26342;42.826;23.992;2022-08-19T12:22:27;94953.06;;;35.12;26.56
40650;BME280;26342;42.826;23.992;2022-08-19T12:24:53;94952.41;;;35.05;27.03
40650;BME280;26342;42.826;23.992;2022-08-19T12:27:28;94941.41;;;35.01;26.01
40650;BME280;26342;42.826;23.992;2022-08-19T12:29:54;94948.66;;;34.95;26.19
40650;BME280;26342;42.826;23.992;2022-08-19T12:32:22;94947.91;;;34.91;26.58
40650;BME280;26342;42.826;23.992;2022-08-19T12:34:50;94943.16;;;34.91;25.82
40650;BME280;26342;42.826;23.992;2022-08-19T12:37:15;94940.13;;;34.82;26.03
40650;BME280;26342;42.826;23.992;2022-08-19T12:39:42;94937.25;;;34.66;26.03
40650;BME280;26342;42.826;23.992;2022-08-19T12:42:11;94941.59;;;34.43;26.39
40650;BME280;26342;42.826;23.992;2022-08-19T12:44:39;94939.06;;;34.29;26.37
40650;BME280;26342;42.826;23.992;2022-08-19T12:47:07;94937.78;;;34.34;28.47
40650;BME280;26342;42.826;23.992;2022-08-19T12:49:35;94934.06;;;34.44;26.91
40650;BME280;26342;42.826;23.992;2022-08-19T12:52:03;94941.69;;;34.40;26.58
40650;BME280;26342;42.826;23.992;2022-08-19T12:54:31;94948.81;;;34.37;26.69
40650;BME280;26342;42.826;23.992;2022-08-19T12:56:57;94936.41;;;34.22;26.74
40650;BME280;26342;42.826;23.992;2022-08-19T12:59:24;94935.31;;;34.16;26.79
40650;BME280;26342;42.826;23.992;2022-08-19T13:01:52;94920.00;;;34.08;26.34
40650;BME280;26342;42.826;23.992;2022-08-19T13:04:18;94928.50;;;33.97;26.85
40650;BME280;26342;42.826;23.992;2022-08-19T13:06:43;94925.97;;;34.06;26.91
40650;BME280;26342;42.826;23.992;2022-08-19T13:09:09;94923.50;;;34.12;27.52
40650;BME280;26342;42.826;23.992;2022-08-19T13:11:38;94925.31;;;34.22;27.57
40650;BME280;26342;42.826;23.992;2022-08-19T13:14:04;94921.56;;;34.09;27.57
40650;BME280;26342;42.826;23.992;2022-08-19T13:16:30;94925.13;;;34.09;26.80
40650;BME280;26342;42.826;23.992;2022-08-19T13:18:59;94925.59;;;34.04;26.81